sensor_id;sensor_type;location;lat;lon;timestamp;P1;durP1;ratioP1;P2;durP2;ratioP2
4766;SDS011;2397;53.576;9.746;2022-10-28T00:00:47;4.33;;;3.90;;
4766;SDS011;2397;53.576;9.746;2022-10-28T00:03:15;10.93;;;4.10;;
4766;SDS011;2397;53.576;9.746;2022-10-28T00:05:42;7.20;;;3.93;;
4766;SDS011;2397;53.576;9.746;2022-10-28T00:08:09;7.53;;;4.20;;
4766;SDS011;2397;53.576;9.746;2022-10-28T00:10:35;8.37;;;3.77;;
4766;SDS011;2397;53.576;9.746;2022-10-28T00:13:02;8.00;;;4.10;;
4766;SDS011;2397;53.576;9.746;2022-10-28T00:15:29;4.20;;;3.80;;
4766;SDS011;2397;53.576;9.746;2022-10-28T00:17:55;7.30;;;4.47;;
4766;SDS011;2397;53.576;9.746;2022-10-28T00:20:21;4.87;;;3.87;;
4766;SDS011;2397;53.576;9.746;2022-10-28T00:22:48;5.20;;;4.10;;
4766;SDS011;2397;53.576;9.746;2022-10-28T00:25:14;4.07;;;3.70;;
4766;SDS011;2397;53.576;9.746;2022-10-28T00:27:40;8.70;;;4.03;;
4766;SDS011;2397;53.576;9.746;2022-10-28T00:30:09;7.77;;;4.80;;
4766;SDS011;2397;53.576;9.746;2022-10-28T00:32:36;9.20;;;4.50;;
4766;SDS011;2397;53.576;9.746;2022-10-28T00:35:03;9.90;;;5.30;;
4766;SDS011;2397;53.576;9.746;2022-10-28T00:37:29;12.57;;;3.87;;
4766;SDS011;2397;53.576;9.746;2022-10-28T00:39:56;3.50;;;3.30;;
4766;SDS011;2397;53.576;9.746;2022-10-28T00:42:22;4.53;;;4.13;;
4766;SDS011;2397;53.576;9.746;2022-10-28T00:47:34;6.47;;;4.50;;
4766;SDS011;2397;53.576;9.746;2022-10-28T00:50:13;8.53;;;3.90;;
4766;SDS011;2397;53.576;9.746;2022-10-28T00:52:46;5.47;;;4.47;;
4766;SDS011;2397;53.576;9.746;2022-10-28T00:55:16;7.20;;;4.60;;
4766;SDS011;2397;53.576;9.746;2022-10-28T00:57:43;6.37;;;4.43;;
4766;SDS011;2397;53.576;9.746;2022-10-28T01:00:12;11.33;;;4.53;;
4766;SDS011;2397;53.576;9.746;2022-10-28T01:02:43;6.50;;;4.13;;
4766;SDS011;2397;53.576;9.746;2022-10-28T01:05:12;6.97;;;4.43;;
4766;SDS011;2397;53.576;9.746;2022-10-28T01:07:41;5.23;;;4.00;;
4766;SDS011;2397;53.576;9.746;2022-10-28T01:10:09;5.90;;;3.97;;
4766;SDS011;2397;53.576;9.746;2022-10-28T01:16:02;10.03;;;3.90;;
4766;SDS011;2397;53.576;9.746;2022-10-28T01:18:50;8.00;;;3.97;;
4766;SDS011;2397;53.576;9.746;2022-10-28T01:30:20;7.73;;;4.60;;
4766;SDS011;2397;53.576;9.746;2022-10-28T01:32:54;8.20;;;4.70;;
4766;SDS011;2397;53.576;9.746;2022-10-28T01:35:47;9.07;;;4.20;;
4766;SDS011;2397;53.576;9.746;2022-10-28T01:41:07;5.40;;;4.10;;
4766;SDS011;2397;53.576;9.746;2022-10-28T01:43:44;7.93;;;4.50;;
4766;SDS011;2397;53.576;9.746;2022-10-28T01:46:18;6.27;;;4.53;;
4766;SDS011;2397;53.576;9.746;2022-10-28T01:48:51;4.57;;;4.23;;
4766;SDS011;2397;53.576;9.746;2022-10-28T01:51:32;7.70;;;4.13;;
4766;SDS011;2397;53.576;9.746;2022-10-28T01:54:03;6.93;;;4.60;;
4766;SDS011;2397;53.576;9.746;2022-10-28T01:56:37;11.20;;;4.73;;
4766;SDS011;2397;53.576;9.746;2022-10-28T01:59:08;8.43;;;5.10;;
4766;SDS011;2397;53.576;9.746;2022-10-28T02:01:37;10.33;;;4.40;;
4766;SDS011;2397;53.576;9.746;2022-10-28T02:04:04;10.27;;;5.83;;
4766;SDS011;2397;53.576;9.746;2022-10-28T02:06:31;4.77;;;4.30;;
4766;SDS011;2397;53.576;9.746;2022-10-28T02:12:07;10.33;;;5.43;;
4766;SDS011;2397;53.576;9.746;2022-10-28T02:14:49;6.80;;;4.70;;
4766;SDS011;2397;53.576;9.746;2022-10-28T02:17:18;7.83;;;6.00;;
4766;SDS011;2397;53.576;9.746;2022-10-28T02:20:13;5.60;;;4.97;;
4766;SDS011;2397;53.576;9.746;2022-10-28T02:26:02;16.57;;;5.10;;
4766;SDS011;2397;53.576;9.746;2022-10-28T02:28:41;6.13;;;4.70;;
4766;SDS011;2397;53.576;9.746;2022-10-28T02:31:30;9.10;;;5.80;;
4766;SDS011;2397;53.576;9.746;2022-10-28T02:34:05;5.50;;;5.00;;
4766;SDS011;2397;53.576;9.746;2022-10-28T02:36:36;5.43;;;4.93;;
4766;SDS011;2397;53.576;9.746;2022-10-28T02:39:07;7.37;;;4.33;;
4766;SDS011;2397;53.576;9.746;2022-10-28T02:41:35;6.80;;;4.97;;
4766;SDS011;2397;53.576;9.746;2022-10-28T02:44:07;6.60;;;4.60;;
4766;SDS011;2397;53.576;9.746;2022-10-28T02:46:38;8.57;;;5.23;;
4766;SDS011;2397;53.576;9.746;2022-10-28T02:49:07;7.10;;;4.83;;
4766;SDS011;2397;53.576;9.746;2022-10-28T02:51:41;5.23;;;4.77;;
4766;SDS011;2397;53.576;9.746;2022-10-28T02:54:12;6.70;;;5.03;;
4766;SDS011;2397;53.576;9.746;2022-10-28T02:56:48;10.23;;;4.80;;
4766;SDS011;2397;53.576;9.746;2022-10-28T02:59:18;6.33;;;4.67;;
4766;SDS011;2397;53.576;9.746;2022-10-28T03:01:44;5.77;;;4.47;;
4766;SDS011;2397;53.576;9.746;2022-10-28T03:04:11;8.10;;;4.90;;
4766;SDS011;2397;53.576;9.746;2022-10-28T03:06:37;8.57;;;4.70;;
4766;SDS011;2397;53.576;9.746;2022-10-28T03:09:03;7.00;;;4.97;;
4766;SDS011;2397;53.576;9.746;2022-10-28T03:11:30;10.20;;;4.43;;
4766;SDS011;2397;53.576;9.746;2022-10-28T03:13:56;6.57;;;4.50;;
4766;SDS011;2397;53.576;9.746;2022-10-28T03:16:23;5.27;;;4.80;;
4766;SDS011;2397;53.576;9.746;2022-10-28T03:18:51;9.03;;;4.87;;
4766;SDS011;2397;53.576;9.746;2022-10-28T03:21:18;6.53;;;4.90;;
4766;SDS011;2397;53.576;9.746;2022-10-28T03:23:45;10.30;;;5.53;;
4766;SDS011;2397;53.576;9.746;2022-10-28T03:26:11;8.20;;;4.83;;
4766;SDS011;2397;53.576;9.746;2022-10-28T03:28:37;9.40;;;5.20;;
4766;SDS011;2397;53.576;9.746;2022-10-28T03:31:04;4.83;;;4.43;;
4766;SDS011;2397;53.576;9.746;2022-10-28T03:33:30;8.03;;;4.30;;
4766;SDS011;2397;53.576;9.746;2022-10-28T03:35:57;9.43;;;5.13;;
4766;SDS011;2397;53.576;9.746;2022-10-28T03:38:23;6.70;;;6.03;;
4766;SDS011;2397;53.576;9.746;2022-10-28T03:40:50;8.17;;;4.40;;
4766;SDS011;2397;53.576;9.746;2022-10-28T03:43:16;8.23;;;4.60;;
4766;SDS011;2397;53.576;9.746;2022-10-28T03:45:43;4.37;;;4.07;;
4766;SDS011;2397;53.576;9.746;2022-10-28T03:48:10;10.33;;;4.57;;
4766;SDS011;2397;53.576;9.746;2022-10-28T03:50:36;7.50;;;4.40;;
4766;SDS011;2397;53.576;9.746;2022-10-28T03:53:03;7.30;;;4.73;;
4766;SDS011;2397;53.576;9.746;2022-10-28T03:55:29;9.80;;;4.60;;
4766;SDS011;2397;53.576;9.746;2022-10-28T03:57:56;8.03;;;4.30;;
4766;SDS011;2397;53.576;9.746;2022-10-28T04:00:26;5.47;;;4.33;;
4766;SDS011;2397;53.576;9.746;2022-10-28T04:02:53;7.53;;;4.30;;
4766;SDS011;2397;53.576;9.746;2022-10-28T04:05:20;6.17;;;4.93;;
4766;SDS011;2397;53.576;9.746;2022-10-28T04:07:46;6.80;;;4.80;;
4766;SDS011;2397;53.576;9.746;2022-10-28T04:10:13;12.57;;;5.10;;
4766;SDS011;2397;53.576;9.746;2022-10-28T04:12:40;11.70;;;4.77;;
4766;SDS011;2397;53.576;9.746;2022-10-28T04:15:06;8.57;;;5.07;;
4766;SDS011;2397;53.576;9.746;2022-10-28T04:17:33;4.83;;;4.10;;
4766;SDS011;2397;53.576;9.746;2022-10-28T04:20:01;8.37;;;4.57;;
4766;SDS011;2397;53.576;9.746;2022-10-28T04:22:27;8.07;;;4.67;;
4766;SDS011;2397;53.576;9.746;2022-10-28T04:24:54;5.83;;;4.60;;
4766;SDS011;2397;53.576;9.746;2022-10-28T04:27:20;11.17;;;4.60;;
4766;SDS011;2397;53.576;9.746;2022-10-28T04:29:46;8.87;;;5.37;;
4766;SDS011;2397;53.576;9.746;2022-10-28T04:32:13;7.90;;;4.63;;
4766;SDS011;2397;53.576;9.746;2022-10-28T04:34:39;8.77;;;5.57;;
4766;SDS011;2397;53.576;9.746;2022-10-28T04:37:05;5.77;;;4.73;;
4766;SDS011;2397;53.576;9.746;2022-10-28T04:39:32;5.50;;;4.30;;
4766;SDS011;2397;53.576;9.746;2022-10-28T04:41:58;7.77;;;5.17;;
4766;SDS011;2397;53.576;9.746;2022-10-28T04:44:25;5.10;;;4.60;;
4766;SDS011;2397;53.576;9.746;2022-10-28T04:46:51;5.30;;;4.80;;
4766;SDS011;2397;53.576;9.746;2022-10-28T04:49:20;9.83;;;5.60;;
4766;SDS011;2397;53.576;9.746;2022-10-28T04:51:46;8.23;;;5.10;;
4766;SDS011;2397;53.576;9.746;2022-10-28T04:54:13;8.77;;;5.13;;
4766;SDS011;2397;53.576;9.746;2022-10-28T04:56:39;8.60;;;5.27;;
4766;SDS011;2397;53.576;9.746;2022-10-28T04:59:05;10.33;;;5.70;;
4766;SDS011;2397;53.576;9.746;2022-10-28T05:01:32;12.33;;;5.20;;
4766;SDS011;2397;53.576;9.746;2022-10-28T05:03:58;7.70;;;5.70;;
4766;SDS011;2397;53.576;9.746;2022-10-28T05:06:25;13.00;;;6.07;;
4766;SDS011;2397;53.576;9.746;2022-10-28T05:08:51;7.90;;;5.80;;
4766;SDS011;2397;53.576;9.746;2022-10-28T05:11:18;6.60;;;5.70;;
4766;SDS011;2397;53.576;9.746;2022-10-28T05:13:44;6.70;;;5.47;;
4766;SDS011;2397;53.576;9.746;2022-10-28T05:16:10;10.57;;;6.50;;
4766;SDS011;2397;53.576;9.746;2022-10-28T05:18:37;10.33;;;6.80;;
4766;SDS011;2397;53.576;9.746;2022-10-28T05:21:03;10.30;;;6.50;;
4766;SDS011;2397;53.576;9.746;2022-10-28T05:23:30;7.67;;;5.70;;
4766;SDS011;2397;53.576;9.746;2022-10-28T05:25:56;9.23;;;6.60;;
4766;SDS011;2397;53.576;9.746;2022-10-28T05:28:23;9.60;;;5.97;;
4766;SDS011;2397;53.576;9.746;2022-10-28T05:30:49;11.53;;;5.90;;
4766;SDS011;2397;53.576;9.746;2022-10-28T05:33:16;8.13;;;6.13;;
4766;SDS011;2397;53.576;9.746;2022-10-28T05:35:42;12.33;;;6.13;;
4766;SDS011;2397;53.576;9.746;2022-10-28T05:38:09;6.67;;;6.07;;
4766;SDS011;2397;53.576;9.746;2022-10-28T05:40:35;13.00;;;6.10;;
4766;SDS011;2397;53.576;9.746;2022-10-28T05:43:01;7.00;;;5.97;;
4766;SDS011;2397;53.576;9.746;2022-10-28T05:45:28;9.10;;;5.90;;
4766;SDS011;2397;53.576;9.746;2022-10-28T05:47:59;7.83;;;6.63;;
4766;SDS011;2397;53.576;9.746;2022-10-28T05:50:25;16.00;;;6.87;;
4766;SDS011;2397;53.576;9.746;2022-10-28T05:52:53;9.10;;;5.90;;
4766;SDS011;2397;53.576;9.746;2022-10-28T05:55:21;10.30;;;5.63;;
4766;SDS011;2397;53.576;9.746;2022-10-28T05:57:50;6.40;;;5.80;;
4766;SDS011;2397;53.576;9.746;2022-10-28T06:00:18;7.03;;;6.27;;
4766;SDS011;2397;53.576;9.746;2022-10-28T06:02:46;8.40;;;6.27;;
4766;SDS011;2397;53.576;9.746;2022-10-28T06:05:13;13.17;;;6.70;;
4766;SDS011;2397;53.576;9.746;2022-10-28T06:07:40;10.73;;;6.50;;
4766;SDS011;2397;53.576;9.746;2022-10-28T06:10:07;10.03;;;7.00;;
4766;SDS011;2397;53.576;9.746;2022-10-28T06:12:35;11.37;;;6.77;;
4766;SDS011;2397;53.576;9.746;2022-10-28T06:15:01;14.90;;;7.47;;
4766;SDS011;2397;53.576;9.746;2022-10-28T06:17:29;7.70;;;6.80;;
4766;SDS011;2397;53.576;9.746;2022-10-28T06:19:56;12.87;;;7.97;;
4766;SDS011;2397;53.576;9.746;2022-10-28T06:22:22;10.00;;;7.37;;
4766;SDS011;2397;53.576;9.746;2022-10-28T06:24:48;13.83;;;7.37;;
4766;SDS011;2397;53.576;9.746;2022-10-28T06:27:15;14.80;;;7.57;;
4766;SDS011;2397;53.576;9.746;2022-10-28T06:29:41;11.57;;;7.50;;
4766;SDS011;2397;53.576;9.746;2022-10-28T06:32:08;16.53;;;6.73;;
4766;SDS011;2397;53.576;9.746;2022-10-28T06:34:35;14.27;;;8.93;;
4766;SDS011;2397;53.576;9.746;2022-10-28T06:37:04;14.30;;;7.30;;
4766;SDS011;2397;53.576;9.746;2022-10-28T06:39:32;10.90;;;6.70;;
4766;SDS011;2397;53.576;9.746;2022-10-28T06:41:59;10.33;;;6.60;;
4766;SDS011;2397;53.576;9.746;2022-10-28T06:44:26;8.80;;;6.30;;
4766;SDS011;2397;53.576;9.746;2022-10-28T06:46:52;9.13;;;6.73;;
4766;SDS011;2397;53.576;9.746;2022-10-28T06:49:18;9.13;;;7.00;;
4766;SDS011;2397;53.576;9.746;2022-10-28T06:51:45;14.37;;;7.63;;
4766;SDS011;2397;53.576;9.746;2022-10-28T06:54:11;11.20;;;7.30;;
4766;SDS011;2397;53.576;9.746;2022-10-28T06:56:38;13.40;;;6.47;;
4766;SDS011;2397;53.576;9.746;2022-10-28T06:59:04;10.77;;;6.90;;
4766;SDS011;2397;53.576;9.746;2022-10-28T07:01:31;13.80;;;6.40;;
4766;SDS011;2397;53.576;9.746;2022-10-28T07:03:57;8.10;;;6.57;;
4766;SDS011;2397;53.576;9.746;2022-10-28T07:06:24;11.30;;;6.80;;
4766;SDS011;2397;53.576;9.746;2022-10-28T07:08:50;11.43;;;7.00;;
4766;SDS011;2397;53.576;9.746;2022-10-28T07:11:16;12.83;;;6.53;;
4766;SDS011;2397;53.576;9.746;2022-10-28T07:13:44;8.43;;;7.00;;
4766;SDS011;2397;53.576;9.746;2022-10-28T07:16:14;12.80;;;6.83;;
4766;SDS011;2397;53.576;9.746;2022-10-28T07:18:40;15.83;;;7.67;;
4766;SDS011;2397;53.576;9.746;2022-10-28T07:21:06;8.23;;;6.37;;
4766;SDS011;2397;53.576;9.746;2022-10-28T07:23:33;9.00;;;6.40;;
4766;SDS011;2397;53.576;9.746;2022-10-28T07:25:59;10.57;;;6.03;;
4766;SDS011;2397;53.576;9.746;2022-10-28T07:28:26;8.80;;;6.07;;
4766;SDS011;2397;53.576;9.746;2022-10-28T07:30:53;10.33;;;6.90;;
4766;SDS011;2397;53.576;9.746;2022-10-28T07:33:20;10.50;;;5.90;;
4766;SDS011;2397;53.576;9.746;2022-10-28T07:35:46;16.90;;;6.50;;
4766;SDS011;2397;53.576;9.746;2022-10-28T07:38:13;9.87;;;5.93;;
4766;SDS011;2397;53.576;9.746;2022-10-28T07:40:39;10.60;;;7.23;;
4766;SDS011;2397;53.576;9.746;2022-10-28T07:43:05;14.27;;;7.30;;
4766;SDS011;2397;53.576;9.746;2022-10-28T07:45:32;14.50;;;6.37;;
4766;SDS011;2397;53.576;9.746;2022-10-28T07:47:59;13.00;;;6.60;;
4766;SDS011;2397;53.576;9.746;2022-10-28T07:50:26;9.10;;;6.23;;
4766;SDS011;2397;53.576;9.746;2022-10-28T07:52:52;10.03;;;5.80;;
4766;SDS011;2397;53.576;9.746;2022-10-28T07:55:19;7.57;;;5.87;;
4766;SDS011;2397;53.576;9.746;2022-10-28T07:57:46;10.07;;;6.07;;
4766;SDS011;2397;53.576;9.746;2022-10-28T08:00:13;15.70;;;6.20;;
4766;SDS011;2397;53.576;9.746;2022-10-28T08:02:40;7.70;;;5.67;;
4766;SDS011;2397;53.576;9.746;2022-10-28T08:05:07;14.13;;;6.40;;
4766;SDS011;2397;53.576;9.746;2022-10-28T08:07:34;11.73;;;5.83;;
4766;SDS011;2397;53.576;9.746;2022-10-28T08:10:04;9.77;;;5.40;;
4766;SDS011;2397;53.576;9.746;2022-10-28T08:12:30;12.47;;;6.17;;
4766;SDS011;2397;53.576;9.746;2022-10-28T08:14:57;8.43;;;6.00;;
4766;SDS011;2397;53.576;9.746;2022-10-28T08:17:23;10.50;;;6.23;;
4766;SDS011;2397;53.576;9.746;2022-10-28T08:19:50;11.83;;;7.03;;
4766;SDS011;2397;53.576;9.746;2022-10-28T08:22:16;11.23;;;7.40;;
4766;SDS011;2397;53.576;9.746;2022-10-28T08:24:43;6.93;;;5.50;;
4766;SDS011;2397;53.576;9.746;2022-10-28T08:27:09;7.93;;;5.80;;
4766;SDS011;2397;53.576;9.746;2022-10-28T08:29:36;11.37;;;5.47;;
4766;SDS011;2397;53.576;9.746;2022-10-28T08:32:02;10.00;;;5.00;;
4766;SDS011;2397;53.576;9.746;2022-10-28T08:34:28;12.97;;;5.87;;
4766;SDS011;2397;53.576;9.746;2022-10-28T08:36:56;14.53;;;5.53;;
4766;SDS011;2397;53.576;9.746;2022-10-28T08:39:23;11.87;;;6.30;;
4766;SDS011;2397;53.576;9.746;2022-10-28T08:41:51;5.87;;;5.27;;
4766;SDS011;2397;53.576;9.746;2022-10-28T08:49:36;11.47;;;5.47;;
4766;SDS011;2397;53.576;9.746;2022-10-28T08:55:05;6.77;;;5.20;;
4766;SDS011;2397;53.576;9.746;2022-10-28T08:57:42;9.20;;;5.23;;
4766;SDS011;2397;53.576;9.746;2022-10-28T09:00:25;8.23;;;5.37;;
4766;SDS011;2397;53.576;9.746;2022-10-28T09:02:56;11.03;;;5.50;;
4766;SDS011;2397;53.576;9.746;2022-10-28T09:05:30;7.80;;;4.93;;
4766;SDS011;2397;53.576;9.746;2022-10-28T09:07:57;9.27;;;5.60;;
4766;SDS011;2397;53.576;9.746;2022-10-28T09:10:35;7.43;;;4.90;;
4766;SDS011;2397;53.576;9.746;2022-10-28T09:15:54;7.50;;;4.77;;
4766;SDS011;2397;53.576;9.746;2022-10-28T09:21:29;12.30;;;5.33;;
4766;SDS011;2397;53.576;9.746;2022-10-28T09:23:58;9.87;;;4.50;;
4766;SDS011;2397;53.576;9.746;2022-10-28T09:29:24;5.80;;;4.57;;
4766;SDS011;2397;53.576;9.746;2022-10-28T09:32:11;11.13;;;4.70;;
4766;SDS011;2397;53.576;9.746;2022-10-28T09:34:43;8.83;;;4.83;;
4766;SDS011;2397;53.576;9.746;2022-10-28T09:37:18;10.43;;;4.40;;
4766;SDS011;2397;53.576;9.746;2022-10-28T09:39:49;7.90;;;3.90;;
4766;SDS011;2397;53.576;9.746;2022-10-28T09:42:21;9.10;;;4.70;;
4766;SDS011;2397;53.576;9.746;2022-10-28T09:44:59;8.77;;;4.27;;
4766;SDS011;2397;53.576;9.746;2022-10-28T09:47:31;6.00;;;4.20;;
4766;SDS011;2397;53.576;9.746;2022-10-28T09:50:21;6.23;;;4.37;;
4766;SDS011;2397;53.576;9.746;2022-10-28T09:53:08;8.33;;;4.43;;
4766;SDS011;2397;53.576;9.746;2022-10-28T09:55:42;6.07;;;4.20;;
4766;SDS011;2397;53.576;9.746;2022-10-28T09:58:09;9.83;;;4.27;;
4766;SDS011;2397;53.576;9.746;2022-10-28T10:00:38;7.00;;;4.03;;
4766;SDS011;2397;53.576;9.746;2022-10-28T10:03:04;11.70;;;4.93;;
4766;SDS011;2397;53.576;9.746;2022-10-28T10:05:31;6.20;;;3.70;;
4766;SDS011;2397;53.576;9.746;2022-10-28T10:08:03;7.83;;;4.77;;
4766;SDS011;2397;53.576;9.746;2022-10-28T10:10:31;9.60;;;3.70;;
4766;SDS011;2397;53.576;9.746;2022-10-28T10:13:04;7.30;;;4.00;;
4766;SDS011;2397;53.576;9.746;2022-10-28T10:15:37;7.63;;;4.20;;
4766;SDS011;2397;53.576;9.746;2022-10-28T10:18:12;6.27;;;4.20;;
4766;SDS011;2397;53.576;9.746;2022-10-28T10:20:47;13.40;;;4.40;;
4766;SDS011;2397;53.576;9.746;2022-10-28T10:23:26;7.03;;;4.00;;
4766;SDS011;2397;53.576;9.746;2022-10-28T10:26:02;6.50;;;4.30;;
4766;SDS011;2397;53.576;9.746;2022-10-28T10:28:35;8.03;;;4.20;;
4766;SDS011;2397;53.576;9.746;2022-10-28T10:31:05;9.00;;;4.07;;
4766;SDS011;2397;53.576;9.746;2022-10-28T10:33:33;10.47;;;4.53;;
4766;SDS011;2397;53.576;9.746;2022-10-28T10:36:03;7.97;;;4.43;;
4766;SDS011;2397;53.576;9.746;2022-10-28T10:38:35;8.03;;;3.90;;
4766;SDS011;2397;53.576;9.746;2022-10-28T10:41:03;7.37;;;4.43;;
4766;SDS011;2397;53.576;9.746;2022-10-28T10:43:30;8.33;;;3.80;;
4766;SDS011;2397;53.576;9.746;2022-10-28T10:46:00;11.53;;;4.80;;
4766;SDS011;2397;53.576;9.746;2022-10-28T10:48:43;8.97;;;4.23;;
4766;SDS011;2397;53.576;9.746;2022-10-28T10:51:24;9.97;;;3.77;;
4766;SDS011;2397;53.576;9.746;2022-10-28T10:53:54;7.00;;;3.40;;
4766;SDS011;2397;53.576;9.746;2022-10-28T10:56:28;7.40;;;3.20;;
4766;SDS011;2397;53.576;9.746;2022-10-28T10:58:58;6.93;;;3.60;;
4766;SDS011;2397;53.576;9.746;2022-10-28T11:01:44;7.43;;;4.00;;
4766;SDS011;2397;53.576;9.746;2022-10-28T11:04:14;7.20;;;3.70;;
4766;SDS011;2397;53.576;9.746;2022-10-28T11:06:43;9.60;;;4.00;;
4766;SDS011;2397;53.576;9.746;2022-10-28T11:09:19;9.07;;;4.50;;
4766;SDS011;2397;53.576;9.746;2022-10-28T11:11:53;8.70;;;3.50;;
4766;SDS011;2397;53.576;9.746;2022-10-28T11:14:25;7.70;;;4.03;;
4766;SDS011;2397;53.576;9.746;2022-10-28T11:19:34;8.20;;;4.00;;
4766;SDS011;2397;53.576;9.746;2022-10-28T11:22:08;9.43;;;4.83;;
4766;SDS011;2397;53.576;9.746;2022-10-28T11:30:39;11.13;;;4.20;;
4766;SDS011;2397;53.576;9.746;2022-10-28T11:33:18;12.33;;;4.00;;
4766;SDS011;2397;53.576;9.746;2022-10-28T11:36:05;9.17;;;3.90;;
4766;SDS011;2397;53.576;9.746;2022-10-28T11:53:11;11.80;;;4.17;;
4766;SDS011;2397;53.576;9.746;2022-10-28T11:56:02;8.70;;;4.30;;
4766;SDS011;2397;53.576;9.746;2022-10-28T11:58:45;11.73;;;4.37;;
4766;SDS011;2397;53.576;9.746;2022-10-28T12:01:39;10.43;;;4.37;;
4766;SDS011;2397;53.576;9.746;2022-10-28T12:06:46;6.90;;;3.77;;
4766;SDS011;2397;53.576;9.746;2022-10-28T12:09:37;12.97;;;4.37;;
4766;SDS011;2397;53.576;9.746;2022-10-28T12:12:34;11.80;;;3.97;;
4766;SDS011;2397;53.576;9.746;2022-10-28T12:23:30;10.77;;;4.20;;
4766;SDS011;2397;53.576;9.746;2022-10-28T12:26:00;6.93;;;3.50;;
4766;SDS011;2397;53.576;9.746;2022-10-28T12:28:39;7.07;;;4.00;;
4766;SDS011;2397;53.576;9.746;2022-10-28T12:31:23;9.80;;;3.77;;
4766;SDS011;2397;53.576;9.746;2022-10-28T12:33:55;13.30;;;4.20;;
4766;SDS011;2397;53.576;9.746;2022-10-28T12:41:55;7.53;;;4.03;;
4766;SDS011;2397;53.576;9.746;2022-10-28T12:44:28;9.57;;;3.97;;
4766;SDS011;2397;53.576;9.746;2022-10-28T12:47:09;12.43;;;4.00;;
4766;SDS011;2397;53.576;9.746;2022-10-28T12:52:48;4.93;;;3.63;;
4766;SDS011;2397;53.576;9.746;2022-10-28T12:58:11;11.23;;;3.70;;
4766;SDS011;2397;53.576;9.746;2022-10-28T13:00:47;12.67;;;4.70;;
4766;SDS011;2397;53.576;9.746;2022-10-28T13:03:18;10.50;;;4.30;;
4766;SDS011;2397;53.576;9.746;2022-10-28T13:05:46;11.27;;;4.43;;
4766;SDS011;2397;53.576;9.746;2022-10-28T13:11:20;9.67;;;4.40;;
4766;SDS011;2397;53.576;9.746;2022-10-28T13:14:18;11.47;;;4.40;;
4766;SDS011;2397;53.576;9.746;2022-10-28T13:17:29;10.80;;;4.47;;
4766;SDS011;2397;53.576;9.746;2022-10-28T13:22:52;5.43;;;3.70;;
4766;SDS011;2397;53.576;9.746;2022-10-28T13:25:30;8.60;;;3.50;;
4766;SDS011;2397;53.576;9.746;2022-10-28T13:28:12;9.20;;;4.60;;
4766;SDS011;2397;53.576;9.746;2022-10-28T13:30:52;8.40;;;4.43;;
4766;SDS011;2397;53.576;9.746;2022-10-28T13:33:27;11.33;;;4.30;;
4766;SDS011;2397;53.576;9.746;2022-10-28T13:39:21;11.10;;;4.10;;
4766;SDS011;2397;53.576;9.746;2022-10-28T13:41:47;9.43;;;3.87;;
4766;SDS011;2397;53.576;9.746;2022-10-28T13:49:22;11.23;;;4.80;;
4766;SDS011;2397;53.576;9.746;2022-10-28T13:54:53;15.70;;;4.83;;
4766;SDS011;2397;53.576;9.746;2022-10-28T14:02:57;12.47;;;5.23;;
4766;SDS011;2397;53.576;9.746;2022-10-28T14:05:48;7.40;;;4.50;;
4766;SDS011;2397;53.576;9.746;2022-10-28T14:13:31;10.77;;;4.77;;
4766;SDS011;2397;53.576;9.746;2022-10-28T14:16:24;12.37;;;4.23;;
4766;SDS011;2397;53.576;9.746;2022-10-28T14:18:56;7.67;;;4.50;;
4766;SDS011;2397;53.576;9.746;2022-10-28T14:21:45;9.70;;;5.33;;
4766;SDS011;2397;53.576;9.746;2022-10-28T14:24:33;10.10;;;5.30;;
4766;SDS011;2397;53.576;9.746;2022-10-28T14:29:44;12.67;;;4.83;;
4766;SDS011;2397;53.576;9.746;2022-10-28T14:35:00;23.37;;;4.87;;
4766;SDS011;2397;53.576;9.746;2022-10-28T14:40:22;14.63;;;5.53;;
4766;SDS011;2397;53.576;9.746;2022-10-28T14:48:51;129.23;;;15.70;;
4766;SDS011;2397;53.576;9.746;2022-10-28T14:51:23;115.90;;;11.30;;
4766;SDS011;2397;53.576;9.746;2022-10-28T14:53:53;34.97;;;8.63;;
4766;SDS011;2397;53.576;9.746;2022-10-28T14:56:24;25.50;;;7.10;;
4766;SDS011;2397;53.576;9.746;2022-10-28T15:02:12;29.07;;;5.17;;
4766;SDS011;2397;53.576;9.746;2022-10-28T15:04:45;119.33;;;12.57;;
4766;SDS011;2397;53.576;9.746;2022-10-28T15:07:14;92.70;;;11.90;;
4766;SDS011;2397;53.576;9.746;2022-10-28T15:09:43;59.00;;;10.23;;
4766;SDS011;2397;53.576;9.746;2022-10-28T15:12:12;38.37;;;7.10;;
4766;SDS011;2397;53.576;9.746;2022-10-28T15:14:45;82.00;;;10.63;;
4766;SDS011;2397;53.576;9.746;2022-10-28T15:17:17;97.80;;;10.83;;
4766;SDS011;2397;53.576;9.746;2022-10-28T15:19:46;36.67;;;7.57;;
4766;SDS011;2397;53.576;9.746;2022-10-28T15:22:16;9.80;;;4.63;;
4766;SDS011;2397;53.576;9.746;2022-10-28T15:24:52;12.40;;;5.07;;
4766;SDS011;2397;53.576;9.746;2022-10-28T15:27:24;25.17;;;5.93;;
4766;SDS011;2397;53.576;9.746;2022-10-28T15:29:52;11.33;;;5.03;;
4766;SDS011;2397;53.576;9.746;2022-10-28T15:34:47;22.50;;;5.77;;
4766;SDS011;2397;53.576;9.746;2022-10-28T15:37:14;21.50;;;6.80;;
4766;SDS011;2397;53.576;9.746;2022-10-28T15:39:47;23.43;;;5.77;;
4766;SDS011;2397;53.576;9.746;2022-10-28T15:42:27;21.87;;;6.40;;
4766;SDS011;2397;53.576;9.746;2022-10-28T15:44:56;19.63;;;5.73;;
4766;SDS011;2397;53.576;9.746;2022-10-28T15:47:26;13.97;;;5.60;;
4766;SDS011;2397;53.576;9.746;2022-10-28T15:49:58;11.17;;;5.63;;
4766;SDS011;2397;53.576;9.746;2022-10-28T15:52:31;8.83;;;4.00;;
4766;SDS011;2397;53.576;9.746;2022-10-28T15:55:00;14.00;;;5.63;;
4766;SDS011;2397;53.576;9.746;2022-10-28T15:57:29;10.53;;;5.20;;
4766;SDS011;2397;53.576;9.746;2022-10-28T16:02:57;11.33;;;4.77;;
4766;SDS011;2397;53.576;9.746;2022-10-28T16:07:57;22.97;;;5.37;;
4766;SDS011;2397;53.576;9.746;2022-10-28T16:10:26;13.40;;;4.50;;
4766;SDS011;2397;53.576;9.746;2022-10-28T16:12:55;12.43;;;5.77;;
4766;SDS011;2397;53.576;9.746;2022-10-28T16:15:21;14.93;;;6.70;;
4766;SDS011;2397;53.576;9.746;2022-10-28T16:17:48;14.33;;;8.70;;
4766;SDS011;2397;53.576;9.746;2022-10-28T16:20:28;20.40;;;9.70;;
4766;SDS011;2397;53.576;9.746;2022-10-28T16:22:55;15.00;;;7.80;;
4766;SDS011;2397;53.576;9.746;2022-10-28T16:25:23;13.30;;;7.33;;
4766;SDS011;2397;53.576;9.746;2022-10-28T16:27:49;8.80;;;6.80;;
4766;SDS011;2397;53.576;9.746;2022-10-28T16:30:16;11.33;;;5.90;;
4766;SDS011;2397;53.576;9.746;2022-10-28T16:32:43;16.00;;;5.50;;
4766;SDS011;2397;53.576;9.746;2022-10-28T16:35:17;9.37;;;5.67;;
4766;SDS011;2397;53.576;9.746;2022-10-28T16:37:45;11.40;;;6.20;;
4766;SDS011;2397;53.576;9.746;2022-10-28T16:40:19;13.27;;;5.23;;
4766;SDS011;2397;53.576;9.746;2022-10-28T16:43:05;11.43;;;5.43;;
4766;SDS011;2397;53.576;9.746;2022-10-28T16:45:31;16.07;;;7.40;;
4766;SDS011;2397;53.576;9.746;2022-10-28T16:47:58;15.17;;;7.60;;
4766;SDS011;2397;53.576;9.746;2022-10-28T16:50:24;9.17;;;6.80;;
4766;SDS011;2397;53.576;9.746;2022-10-28T16:52:50;22.33;;;10.27;;
4766;SDS011;2397;53.576;9.746;2022-10-28T16:55:19;15.80;;;9.67;;
4766;SDS011;2397;53.576;9.746;2022-10-28T16:57:45;18.93;;;10.73;;
4766;SDS011;2397;53.576;9.746;2022-10-28T17:00:12;15.20;;;9.60;;
4766;SDS011;2397;53.576;9.746;2022-10-28T17:02:39;22.80;;;10.60;;
4766;SDS011;2397;53.576;9.746;2022-10-28T17:05:08;15.30;;;9.10;;
4766;SDS011;2397;53.576;9.746;2022-10-28T17:07:44;17.03;;;10.57;;
4766;SDS011;2397;53.576;9.746;2022-10-28T17:10:10;18.30;;;10.00;;
4766;SDS011;2397;53.576;9.746;2022-10-28T17:12:37;20.13;;;9.73;;
4766;SDS011;2397;53.576;9.746;2022-10-28T17:15:04;15.60;;;8.90;;
4766;SDS011;2397;53.576;9.746;2022-10-28T17:17:30;13.63;;;9.80;;
4766;SDS011;2397;53.576;9.746;2022-10-28T17:19:57;18.20;;;8.40;;
4766;SDS011;2397;53.576;9.746;2022-10-28T17:22:25;14.53;;;8.17;;
4766;SDS011;2397;53.576;9.746;2022-10-28T17:24:51;11.17;;;6.03;;
4766;SDS011;2397;53.576;9.746;2022-10-28T17:27:19;13.23;;;7.00;;
4766;SDS011;2397;53.576;9.746;2022-10-28T17:29:45;11.33;;;6.67;;
4766;SDS011;2397;53.576;9.746;2022-10-28T17:32:12;9.50;;;6.30;;
4766;SDS011;2397;53.576;9.746;2022-10-28T17:34:38;15.63;;;6.93;;
4766;SDS011;2397;53.576;9.746;2022-10-28T17:37:05;12.97;;;6.40;;
4766;SDS011;2397;53.576;9.746;2022-10-28T17:39:32;12.13;;;6.70;;
4766;SDS011;2397;53.576;9.746;2022-10-28T17:41:59;15.30;;;6.13;;
4766;SDS011;2397;53.576;9.746;2022-10-28T17:44:25;14.40;;;5.60;;
4766;SDS011;2397;53.576;9.746;2022-10-28T17:46:51;16.47;;;6.47;;